createdAt,value
2023-01-01T00:01:40.263Z,99674.25
2023-01-01T00:04:09.761Z,99675.56
2023-01-01T00:06:36.515Z,99680.78
2023-01-01T00:09:22.312Z,99686.81
2023-01-01T00:11:49.038Z,99678.38
2023-01-01T00:14:15.702Z,99672.94
2023-01-01T00:16:42.393Z,99681.16
2023-01-01T00:19:09.043Z,99670.25
2023-01-01T00:21:35.582Z,99671.66
2023-01-01T00:24:02.620Z,99682.13
2023-01-01T00:26:34.654Z,99679.66
2023-01-01T00:29:02.155Z,99674.13
2023-01-01T00:31:28.815Z,99678.19
2023-01-01T00:33:56.009Z,99678.88
2023-01-01T00:36:25.011Z,99688.88
2023-01-01T00:38:51.965Z,99682.53
2023-01-01T00:41:19.927Z,99691.44
2023-01-01T00:43:46.610Z,99688.75
2023-01-01T00:46:13.513Z,99693.59
2023-01-01T00:48:40.270Z,99689.94
2023-01-01T00:51:06.948Z,99690.38
2023-01-01T00:53:33.815Z,99699.41
2023-01-01T00:56:00.490Z,99694.25
2023-01-01T00:58:27.084Z,99684.59
2023-01-01T01:00:54.723Z,99689.56
2023-01-01T01:03:30.890Z,99680.91
2023-01-01T01:06:04.684Z,99693.22
2023-01-01T01:08:33.553Z,99701.06
2023-01-01T01:11:14.004Z,99685.78
2023-01-01T01:13:41.459Z,99689.59
2023-01-01T01:16:27.804Z,99693.72
2023-01-01T01:18:56.455Z,99701.91
2023-01-01T01:21:24.028Z,99690.22
2023-01-01T01:23:51.284Z,99691.88
2023-01-01T01:26:23.809Z,99708.19
2023-01-01T01:28:50.932Z,99699.19
2023-01-01T01:31:22.250Z,99701.97
2023-01-01T01:33:49.687Z,99702.13
2023-01-01T01:36:16.966Z,99693.31
2023-01-01T01:38:43.804Z,99687.53
2023-01-01T01:41:26.126Z,99692.34
2023-01-01T01:44:25.706Z,99701.63
2023-01-01T01:46:52.294Z,99703.66
2023-01-01T01:49:27.017Z,99690.88
2023-01-01T01:51:53.915Z,99695.34
2023-01-01T01:54:23.171Z,99705.72
2023-01-01T01:57:04.390Z,99700.38
2023-01-01T01:59:34.501Z,99699.06
2023-01-01T02:02:01.728Z,99696.84
2023-01-01T02:04:28.679Z,99704.75
2023-01-01T02:06:55.847Z,99685.03
2023-01-01T02:09:22.565Z,99681.56
2023-01-01T02:11:49.079Z,99687.63
2023-01-01T02:14:16.300Z,99694.94
2023-01-01T02:17:38.524Z,99693.63
2023-01-01T02:20:12.254Z,99699.28
2023-01-01T02:23:04.646Z,99702.25
2023-01-01T02:26:03.693Z,99699.41
2023-01-01T02:28:51.915Z,99698.28
2023-01-01T02:31:24.081Z,99697.75
2023-01-01T02:33:52.596Z,99692.03
2023-01-01T02:36:20.496Z,99695.25
2023-01-01T02:38:49.947Z,99687.44
2023-01-01T02:41:22.268Z,99683.84
2023-01-01T02:43:48.988Z,99665.31
2023-01-01T02:48:49.110Z,99680.47
2023-01-01T02:51:39.604Z,99690.06
2023-01-01T02:54:17.961Z,99679.56
2023-01-01T02:56:51.000Z,99674.94
2023-01-01T02:59:38.727Z,99677.59
2023-01-01T03:02:13.314Z,99670.88
2023-01-01T03:04:42.755Z,99673.84
2023-01-01T03:07:28.051Z,99681.34
2023-01-01T03:10:05.742Z,99674.47
2023-01-01T03:12:40.324Z,99684.13
2023-01-01T03:15:25.813Z,99661.00
2023-01-01T03:18:40.195Z,99665.53
2023-01-01T03:21:07.371Z,99661.66
2023-01-01T03:23:50.004Z,99653.63
2023-01-01T03:26:17.829Z,99664.81
2023-01-01T03:28:48.285Z,99681.47
2023-01-01T03:31:18.925Z,99696.41
2023-01-01T03:33:48.552Z,99685.88
2023-01-01T03:36:22.523Z,99700.56
2023-01-01T03:38:52.841Z,99706.28
2023-01-01T03:41:38.682Z,99704.25
2023-01-01T03:44:18.928Z,99718.22
2023-01-01T03:46:45.867Z,99712.34
2023-01-01T03:49:12.799Z,99727.53
2023-01-01T03:51:57.034Z,99723.50
2023-01-01T03:54:35.731Z,99718.75
2023-01-01T03:57:22.531Z,99704.56
2023-01-01T03:59:59.164Z,99729.84
2023-01-01T04:02:31.067Z,99709.38
2023-01-01T04:05:00.129Z,99717.38
2023-01-01T04:07:27.001Z,99718.66
2023-01-01T04:09:54.496Z,99714.00
2023-01-01T04:12:21.439Z,99715.13
2023-01-01T04:14:48.080Z,99724.69
2023-01-01T04:17:14.901Z,99721.50
2023-01-01T04:19:41.650Z,99726.66
2023-01-01T04:22:08.241Z,99729.97
2023-01-01T04:24:35.309Z,99740.56
2023-01-01T04:27:01.852Z,99727.50
2023-01-01T04:29:28.354Z,99741.53
2023-01-01T04:31:55.040Z,99732.53
2023-01-01T04:34:21.541Z,99743.81
2023-01-01T04:36:48.246Z,99742.16
2023-01-01T04:39:14.829Z,99737.09
2023-01-01T04:41:41.517Z,99740.03
2023-01-01T04:44:08.436Z,99748.31
2023-01-01T04:46:34.991Z,99740.84
2023-01-01T04:49:01.635Z,99743.16
2023-01-01T04:51:28.171Z,99740.19
2023-01-01T04:53:54.812Z,99733.00
2023-01-01T04:56:22.614Z,99751.31
2023-01-01T04:58:49.414Z,99740.72
2023-01-01T05:01:21.801Z,99741.53
2023-01-01T05:03:49.264Z,99752.88
2023-01-01T05:06:16.418Z,99761.47
2023-01-01T05:08:45.741Z,99758.53
2023-01-01T05:11:21.013Z,99752.84
2023-01-01T05:13:49.970Z,99750.22
2023-01-01T05:16:20.223Z,99743.81
2023-01-01T05:18:47.403Z,99751.66
2023-01-01T05:21:16.115Z,99746.88
2023-01-01T05:23:42.969Z,99749.41
2023-01-01T05:26:11.574Z,99759.44
2023-01-01T05:28:38.766Z,99757.31
2023-01-01T05:31:06.918Z,99754.63
2023-01-01T05:33:33.704Z,99757.44
2023-01-01T05:36:01.046Z,99768.75
2023-01-01T05:38:27.778Z,99770.25
2023-01-01T05:40:54.503Z,99773.13
2023-01-01T05:43:20.964Z,99778.91
2023-01-01T05:45:47.514Z,99781.91
2023-01-01T05:48:14.098Z,99778.47
2023-01-01T05:50:40.640Z,99781.72
2023-01-01T05:53:07.252Z,99775.03
2023-01-01T05:55:33.771Z,99787.44
2023-01-01T05:58:00.279Z,99780.13
2023-01-01T06:00:28.185Z,99796.81
2023-01-01T06:02:54.977Z,99796.63
2023-01-01T06:05:21.775Z,99798.81
2023-01-01T06:07:48.873Z,99805.38
2023-01-01T06:10:15.651Z,99806.88
2023-01-01T06:12:42.128Z,99816.78
2023-01-01T06:15:08.884Z,99806.31
2023-01-01T06:17:35.477Z,99804.41
2023-01-01T06:20:01.951Z,99810.72
2023-01-01T06:22:28.481Z,99813.34
2023-01-01T06:24:54.913Z,99812.53
2023-01-01T06:27:21.490Z,99820.69
2023-01-01T06:29:47.955Z,99816.31
2023-01-01T06:32:14.521Z,99821.19
2023-01-01T06:34:40.986Z,99833.06
2023-01-01T06:37:07.439Z,99828.06
2023-01-01T06:39:34.033Z,99833.06
2023-01-01T06:42:00.518Z,99828.19
2023-01-01T06:44:26.970Z,99824.03
2023-01-01T06:46:53.582Z,99825.38
2023-01-01T06:49:20.357Z,99833.06
2023-01-01T06:51:46.824Z,99824.19
2023-01-01T06:54:13.287Z,99826.31
2023-01-01T06:56:39.942Z,99833.69
2023-01-01T06:59:06.692Z,99835.03
2023-01-01T07:01:35.813Z,99839.69
2023-01-01T07:04:08.257Z,99849.41
2023-01-01T07:06:35.599Z,99844.72
2023-01-01T07:09:02.652Z,99852.75
2023-01-01T07:11:29.637Z,99853.56
2023-01-01T07:13:56.449Z,99850.06
2023-01-01T07:16:23.903Z,99850.38
2023-01-01T07:18:50.864Z,99853.72
2023-01-01T07:21:54.528Z,99864.41
2023-01-01T07:24:21.339Z,99864.75
2023-01-01T07:26:49.343Z,99871.53
2023-01-01T07:29:16.207Z,99874.91
2023-01-01T07:31:43.919Z,99878.41
2023-01-01T07:34:13.888Z,99879.16
2023-01-01T07:36:41.416Z,99891.38
2023-01-01T07:39:08.288Z,99887.84
2023-01-01T07:41:34.977Z,99884.84
2023-01-01T07:44:01.768Z,99893.88
2023-01-01T07:46:28.886Z,99891.88
2023-01-01T07:48:56.491Z,99896.19
2023-01-01T07:51:23.229Z,99894.19
2023-01-01T07:53:50.036Z,99902.22
2023-01-01T07:56:16.704Z,99908.88
2023-01-01T07:58:43.292Z,99913.19
2023-01-01T08:01:12.076Z,99921.16
2023-01-01T08:03:38.977Z,99919.13
2023-01-01T08:06:15.171Z,99917.44
2023-01-01T08:08:41.916Z,99924.47
2023-01-01T08:11:08.687Z,99926.31
2023-01-01T08:13:35.466Z,99931.81
2023-01-01T08:16:02.445Z,99936.50
2023-01-01T08:18:29.028Z,99938.50
2023-01-01T08:20:57.363Z,99933.47
2023-01-01T08:23:24.341Z,99944.81
2023-01-01T08:25:50.851Z,99948.47
2023-01-01T08:28:17.657Z,99953.13
2023-01-01T08:30:44.205Z,99948.28
2023-01-01T08:33:10.873Z,99950.44
2023-01-01T08:35:40.562Z,99943.25
2023-01-01T08:38:07.075Z,99948.75
2023-01-01T08:40:33.726Z,99952.09
2023-01-01T08:43:00.224Z,99962.59
2023-01-01T08:45:29.589Z,99961.91
2023-01-01T08:47:56.255Z,99960.84
2023-01-01T08:50:23.067Z,99966.63
2023-01-01T08:52:49.619Z,99969.22
2023-01-01T08:55:16.112Z,99974.44
2023-01-01T08:57:42.825Z,99971.69
2023-01-01T09:00:10.165Z,99985.50
2023-01-01T09:02:36.910Z,99993.31
2023-01-01T09:05:03.814Z,100003.56
2023-01-01T09:07:30.721Z,100014.00
2023-01-01T09:09:57.479Z,100015.06
2023-01-01T09:12:24.064Z,100024.50
2023-01-01T09:14:51.573Z,100020.59
2023-01-01T09:17:18.330Z,100016.56
2023-01-01T09:19:45.293Z,100022.25
2023-01-01T09:22:12.812Z,100037.91
2023-01-01T09:24:39.817Z,100013.03
2023-01-01T09:27:06.434Z,100019.44
2023-01-01T09:29:33.186Z,100023.78
2023-01-01T09:32:00.008Z,100007.69
2023-01-01T09:34:26.615Z,100004.56
2023-01-01T09:36:53.130Z,99990.53
2023-01-01T09:39:23.184Z,99993.16
2023-01-01T09:42:05.289Z,99988.66
2023-01-01T09:44:46.695Z,99977.22
2023-01-01T09:47:25.767Z,99984.19
2023-01-01T09:49:52.847Z,99984.78
2023-01-01T09:52:21.168Z,99987.34
2023-01-01T09:55:16.148Z,99994.94
2023-01-01T09:57:42.844Z,99989.94
2023-01-01T10:00:17.762Z,99991.38
2023-01-01T10:03:02.745Z,99992.16
2023-01-01T10:06:01.735Z,99985.31
2023-01-01T10:08:34.395Z,99988.81
2023-01-01T10:11:39.839Z,99983.31
2023-01-01T10:14:20.674Z,99987.00
2023-01-01T10:16:50.108Z,99979.38
2023-01-01T10:19:20.814Z,99999.41
2023-01-01T10:21:49.533Z,99991.97
2023-01-01T10:24:45.306Z,99987.56
2023-01-01T10:27:28.437Z,99984.00
2023-01-01T10:29:59.664Z,99976.41
2023-01-01T10:32:31.171Z,99990.28
2023-01-01T10:34:58.307Z,99984.19
2023-01-01T10:37:27.926Z,99986.03
2023-01-01T10:39:54.874Z,99999.75
2023-01-01T10:42:21.844Z,100010.31
2023-01-01T10:44:52.022Z,99996.31
2023-01-01T10:47:29.725Z,99986.66
2023-01-01T10:49:57.773Z,99978.94
2023-01-01T10:52:35.945Z,99985.16
2023-01-01T10:55:03.083Z,99986.59
2023-01-01T10:57:35.735Z,99984.88
2023-01-01T11:00:16.936Z,100004.69
2023-01-01T11:02:43.729Z,99994.44
2023-01-01T11:05:22.654Z,99988.81
2023-01-01T11:07:50.410Z,99990.56
2023-01-01T11:10:22.254Z,99994.50
2023-01-01T11:13:06.604Z,99972.56
2023-01-01T11:15:38.725Z,99968.94
2023-01-01T11:18:16.576Z,99959.53
2023-01-01T11:20:43.703Z,99955.59
2023-01-01T11:23:30.676Z,99954.13
2023-01-01T11:26:17.536Z,99950.00
2023-01-01T11:29:00.137Z,99953.13
2023-01-01T11:31:30.854Z,99949.59
2023-01-01T11:33:57.654Z,99953.09
2023-01-01T11:36:25.993Z,99952.03
2023-01-01T11:39:23.027Z,99950.78
2023-01-01T11:41:51.637Z,99960.31
2023-01-01T11:44:35.883Z,99947.88
2023-01-01T11:47:03.023Z,99939.00
2023-01-01T11:49:33.189Z,99950.38
2023-01-01T11:52:00.201Z,99951.00
2023-01-01T11:54:36.233Z,99937.06
2023-01-01T11:57:08.095Z,99934.53
2023-01-01T11:59:41.764Z,99954.81
2023-01-01T12:02:13.210Z,99951.03
2023-01-01T12:04:45.680Z,99963.63
2023-01-01T12:07:16.348Z,99973.16
2023-01-01T12:10:05.706Z,99976.06
2023-01-01T12:12:53.701Z,99973.16
2023-01-01T12:15:25.954Z,99978.06
2023-01-01T12:18:02.894Z,99974.94
2023-01-01T12:20:33.905Z,99962.97
2023-01-01T12:23:01.179Z,99960.91
2023-01-01T12:25:39.746Z,99967.75
2023-01-01T12:28:15.680Z,99955.56
2023-01-01T12:31:01.137Z,99945.59
2023-01-01T12:33:40.113Z,99960.81
2023-01-01T12:36:42.742Z,99959.38
2023-01-01T12:39:20.294Z,99959.56
2023-01-01T12:41:53.048Z,99959.78
2023-01-01T12:44:31.285Z,99968.78
2023-01-01T12:47:21.705Z,99959.69
2023-01-01T12:50:12.442Z,99959.16
2023-01-01T12:52:58.358Z,99958.69
2023-01-01T12:55:29.708Z,99960.84
2023-01-01T12:58:11.429Z,99958.38
2023-01-01T13:00:38.908Z,99959.06
2023-01-01T13:03:10.996Z,99960.50
2023-01-01T13:05:41.741Z,99970.13
2023-01-01T13:08:08.506Z,99969.63
2023-01-01T13:10:38.570Z,99967.38
2023-01-01T13:13:05.968Z,99956.66
2023-01-01T13:15:54.309Z,99964.69
2023-01-01T13:18:22.319Z,99967.38
2023-01-01T13:21:00.678Z,99970.88
2023-01-01T13:23:29.844Z,99960.00
2023-01-01T13:26:19.825Z,99959.09
2023-01-01T13:28:52.285Z,99958.53
2023-01-01T13:31:20.276Z,99957.69
2023-01-01T13:34:25.186Z,99958.25
2023-01-01T13:36:51.779Z,99959.47
2023-01-01T13:39:54.034Z,99965.38
2023-01-01T13:42:52.307Z,99975.09
2023-01-01T13:46:10.642Z,99991.84
2023-01-01T13:48:49.107Z,99986.03
2023-01-01T13:54:49.533Z,99990.84
2023-01-01T13:57:46.930Z,99989.75
2023-01-01T14:00:24.956Z,100002.13
2023-01-01T14:03:01.453Z,100008.97
2023-01-01T14:05:42.064Z,100029.56
2023-01-01T14:08:28.962Z,100027.88
2023-01-01T14:10:55.958Z,100025.66
2023-01-01T14:13:29.967Z,100031.00
2023-01-01T14:15:59.905Z,100029.53
2023-01-01T14:18:36.605Z,100040.78
2023-01-01T14:21:03.529Z,100038.31
2023-01-01T14:23:39.802Z,100057.94
2023-01-01T14:26:12.608Z,100059.47
2023-01-01T14:28:39.906Z,100064.53
2023-01-01T14:31:11.585Z,100066.72
2023-01-01T14:33:39.779Z,100064.03
2023-01-01T14:36:16.303Z,100059.59
2023-01-01T14:38:44.969Z,100067.34
2023-01-01T14:41:17.849Z,100064.25
2023-01-01T14:43:46.705Z,100080.09
2023-01-01T14:46:20.113Z,100075.94
2023-01-01T14:48:53.986Z,100073.78
2023-01-01T14:51:25.094Z,100087.53
2023-01-01T14:53:53.102Z,100087.75
2023-01-01T14:56:33.729Z,100086.59
2023-01-01T14:59:25.022Z,100075.06
2023-01-01T15:02:03.921Z,100070.34
2023-01-01T15:04:31.949Z,100066.69
2023-01-01T15:07:00.527Z,100063.69
2023-01-01T15:09:28.324Z,100050.66
2023-01-01T15:11:56.043Z,100046.56
2023-01-01T15:14:36.201Z,100060.19
2023-01-01T15:17:11.033Z,100066.25
2023-01-01T15:19:41.114Z,100057.22
2023-01-01T15:22:22.590Z,100050.00
2023-01-01T15:24:49.409Z,100045.38
2023-01-01T15:27:28.354Z,100045.38
2023-01-01T15:29:57.149Z,100052.47
2023-01-01T15:32:29.662Z,100060.13
2023-01-01T15:34:58.304Z,100063.25
2023-01-01T15:37:34.192Z,100068.88
2023-01-01T15:40:22.302Z,100084.22
2023-01-01T15:42:54.852Z,100101.72
2023-01-01T15:45:22.635Z,100102.84
2023-01-01T15:47:50.917Z,100093.00
2023-01-01T15:50:30.126Z,100101.59
2023-01-01T15:53:22.105Z,100097.66
2023-01-01T15:56:12.186Z,100110.34
2023-01-01T15:58:46.398Z,100109.22
2023-01-01T16:01:14.459Z,100121.44
2023-01-01T16:03:42.486Z,100123.09
2023-01-01T16:06:15.993Z,100118.41
2023-01-01T16:08:42.494Z,100124.63
2023-01-01T16:11:08.917Z,100126.59
2023-01-01T16:13:35.495Z,100115.59
2023-01-01T16:16:03.550Z,100113.94
2023-01-01T16:18:33.177Z,100106.56
2023-01-01T16:21:00.280Z,100117.75
2023-01-01T16:23:27.005Z,100126.44
2023-01-01T16:25:53.541Z,100126.78
2023-01-01T16:28:23.633Z,100126.28
2023-01-01T16:30:50.453Z,100135.16
2023-01-01T16:33:19.172Z,100145.81
2023-01-01T16:35:46.219Z,100154.66
2023-01-01T16:38:12.810Z,100161.19
2023-01-01T16:40:39.703Z,100152.00
2023-01-01T16:43:09.784Z,100160.84
2023-01-01T16:45:36.429Z,100165.19
2023-01-01T16:48:03.017Z,100165.69
2023-01-01T16:50:29.610Z,100158.50
2023-01-01T16:52:56.128Z,100164.19
2023-01-01T16:55:22.598Z,100173.00
2023-01-01T16:57:49.114Z,100169.16
2023-01-01T17:00:16.205Z,100166.81
2023-01-01T17:02:42.921Z,100169.13
2023-01-01T17:05:10.790Z,100181.63
2023-01-01T17:07:37.254Z,100166.16
2023-01-01T17:10:04.499Z,100171.31
2023-01-01T17:12:31.510Z,100165.44
2023-01-01T17:14:57.976Z,100166.59
2023-01-01T17:17:24.500Z,100150.94
2023-01-01T17:19:51.043Z,100155.97
2023-01-01T17:22:17.534Z,100153.78
2023-01-01T17:24:44.181Z,100151.81
2023-01-01T17:27:10.884Z,100153.78
2023-01-01T17:29:37.473Z,100161.97
2023-01-01T17:32:04.119Z,100167.97
2023-01-01T17:34:30.602Z,100167.13
2023-01-01T17:36:57.100Z,100171.78
2023-01-01T17:39:23.558Z,100171.78
2023-01-01T17:41:50.026Z,100176.25
2023-01-01T17:44:16.503Z,100176.25
2023-01-01T17:46:44.251Z,100176.06
2023-01-01T17:49:11.253Z,100195.41
2023-01-01T17:51:39.397Z,100186.03
2023-01-01T17:54:10.196Z,100190.00
2023-01-01T17:56:36.769Z,100195.69
2023-01-01T17:59:03.329Z,100192.81
2023-01-01T18:01:32.390Z,100193.38
2023-01-01T18:04:07.236Z,100200.47
2023-01-01T18:06:41.095Z,100211.00
2023-01-01T18:09:11.782Z,100213.44
2023-01-01T18:11:38.331Z,100222.59
2023-01-01T18:14:05.272Z,100224.09
2023-01-01T18:16:36.023Z,100239.72
2023-01-01T18:19:04.195Z,100247.72
2023-01-01T18:21:32.915Z,100242.50
